sensor_id;sensor_type;location;lat;lon;timestamp;P1;durP1;ratioP1;P2;durP2;ratioP2
9270;SDS011;4673;53.458;9.940;2024-02-23T00:01:56;1.30;;;1.30;;
9270;SDS011;4673;53.458;9.940;2024-02-23T00:04:22;0.83;;;0.83;;
9270;SDS011;4673;53.458;9.940;2024-02-23T00:06:48;1.23;;;1.23;;
9270;SDS011;4673;53.458;9.940;2024-02-23T00:09:13;1.83;;;1.83;;
9270;SDS011;4673;53.458;9.940;2024-02-23T00:11:39;0.90;;;0.90;;
9270;SDS011;4673;53.458;9.940;2024-02-23T00:14:09;1.07;;;1.07;;
9270;SDS011;4673;53.458;9.940;2024-02-23T00:16:38;0.77;;;0.77;;
9270;SDS011;4673;53.458;9.940;2024-02-23T00:19:05;0.70;;;0.70;;
9270;SDS011;4673;53.458;9.940;2024-02-23T00:21:37;0.80;;;0.80;;
9270;SDS011;4673;53.458;9.940;2024-02-23T00:24:03;0.80;;;0.80;;
9270;SDS011;4673;53.458;9.940;2024-02-23T00:26:30;0.63;;;0.63;;
9270;SDS011;4673;53.458;9.940;2024-02-23T00:28:56;0.70;;;0.70;;
9270;SDS011;4673;53.458;9.940;2024-02-23T00:31:21;1.07;;;1.07;;
9270;SDS011;4673;53.458;9.940;2024-02-23T00:33:47;0.63;;;0.63;;
9270;SDS011;4673;53.458;9.940;2024-02-23T00:36:12;0.70;;;0.70;;
9270;SDS011;4673;53.458;9.940;2024-02-23T00:38:38;0.80;;;0.80;;
9270;SDS011;4673;53.458;9.940;2024-02-23T00:41:04;0.50;;;0.50;;
9270;SDS011;4673;53.458;9.940;2024-02-23T00:43:30;0.60;;;0.60;;
9270;SDS011;4673;53.458;9.940;2024-02-23T00:46:02;0.57;;;0.57;;
9270;SDS011;4673;53.458;9.940;2024-02-23T00:48:29;0.93;;;0.93;;
9270;SDS011;4673;53.458;9.940;2024-02-23T00:50:55;0.77;;;0.77;;
9270;SDS011;4673;53.458;9.940;2024-02-23T00:53:20;0.67;;;0.67;;
9270;SDS011;4673;53.458;9.940;2024-02-23T00:55:47;0.70;;;0.70;;
9270;SDS011;4673;53.458;9.940;2024-02-23T00:58:12;0.83;;;0.83;;
9270;SDS011;4673;53.458;9.940;2024-02-23T01:00:38;0.60;;;0.60;;
9270;SDS011;4673;53.458;9.940;2024-02-23T01:03:04;0.53;;;0.53;;
9270;SDS011;4673;53.458;9.940;2024-02-23T01:05:30;0.50;;;0.50;;
9270;SDS011;4673;53.458;9.940;2024-02-23T01:07:55;0.40;;;0.40;;
9270;SDS011;4673;53.458;9.940;2024-02-23T01:10:21;0.30;;;0.30;;
9270;SDS011;4673;53.458;9.940;2024-02-23T01:12:47;0.43;;;0.43;;
9270;SDS011;4673;53.458;9.940;2024-02-23T01:15:12;0.40;;;0.40;;
9270;SDS011;4673;53.458;9.940;2024-02-23T01:17:38;0.60;;;0.60;;
9270;SDS011;4673;53.458;9.940;2024-02-23T01:20:04;0.40;;;0.40;;
9270;SDS011;4673;53.458;9.940;2024-02-23T01:22:30;0.50;;;0.50;;
9270;SDS011;4673;53.458;9.940;2024-02-23T01:24:55;0.60;;;0.60;;
9270;SDS011;4673;53.458;9.940;2024-02-23T01:27:21;0.57;;;0.57;;
9270;SDS011;4673;53.458;9.940;2024-02-23T01:29:47;0.63;;;0.63;;
9270;SDS011;4673;53.458;9.940;2024-02-23T01:32:13;0.87;;;0.87;;
9270;SDS011;4673;53.458;9.940;2024-02-23T01:34:38;0.60;;;0.60;;
9270;SDS011;4673;53.458;9.940;2024-02-23T01:37:04;0.80;;;0.80;;
9270;SDS011;4673;53.458;9.940;2024-02-23T01:39:29;0.70;;;0.70;;
9270;SDS011;4673;53.458;9.940;2024-02-23T01:41:55;0.80;;;0.80;;
9270;SDS011;4673;53.458;9.940;2024-02-23T01:44:21;0.70;;;0.70;;
9270;SDS011;4673;53.458;9.940;2024-02-23T01:46:47;1.00;;;1.00;;
9270;SDS011;4673;53.458;9.940;2024-02-23T01:49:12;0.60;;;0.60;;
9270;SDS011;4673;53.458;9.940;2024-02-23T01:51:39;0.90;;;0.90;;
9270;SDS011;4673;53.458;9.940;2024-02-23T01:54:05;0.90;;;0.90;;
9270;SDS011;4673;53.458;9.940;2024-02-23T01:56:32;1.10;;;1.10;;
9270;SDS011;4673;53.458;9.940;2024-02-23T01:58:59;0.97;;;0.97;;
9270;SDS011;4673;53.458;9.940;2024-02-23T02:01:28;1.10;;;1.10;;
9270;SDS011;4673;53.458;9.940;2024-02-23T02:03:54;0.73;;;0.73;;
9270;SDS011;4673;53.458;9.940;2024-02-23T02:06:21;0.70;;;0.70;;
9270;SDS011;4673;53.458;9.940;2024-02-23T02:08:47;0.70;;;0.70;;
9270;SDS011;4673;53.458;9.940;2024-02-23T02:11:12;0.50;;;0.50;;
9270;SDS011;4673;53.458;9.940;2024-02-23T02:13:38;0.40;;;0.40;;
9270;SDS011;4673;53.458;9.940;2024-02-23T02:16:04;0.60;;;0.60;;
9270;SDS011;4673;53.458;9.940;2024-02-23T02:18:30;0.50;;;0.50;;
9270;SDS011;4673;53.458;9.940;2024-02-23T02:20:56;0.37;;;0.37;;
9270;SDS011;4673;53.458;9.940;2024-02-23T02:23:22;0.40;;;0.40;;
9270;SDS011;4673;53.458;9.940;2024-02-23T02:28:20;0.60;;;0.60;;
9270;SDS011;4673;53.458;9.940;2024-02-23T02:30:46;0.60;;;0.60;;
9270;SDS011;4673;53.458;9.940;2024-02-23T02:33:12;0.30;;;0.30;;
9270;SDS011;4673;53.458;9.940;2024-02-23T02:35:37;0.43;;;0.43;;
9270;SDS011;4673;53.458;9.940;2024-02-23T02:38:03;0.30;;;0.30;;
9270;SDS011;4673;53.458;9.940;2024-02-23T02:40:29;0.50;;;0.50;;
9270;SDS011;4673;53.458;9.940;2024-02-23T02:42:54;0.50;;;0.50;;
9270;SDS011;4673;53.458;9.940;2024-02-23T02:45:20;0.40;;;0.40;;
9270;SDS011;4673;53.458;9.940;2024-02-23T02:47:46;0.40;;;0.40;;
9270;SDS011;4673;53.458;9.940;2024-02-23T02:50:11;0.40;;;0.40;;
9270;SDS011;4673;53.458;9.940;2024-02-23T02:52:37;0.40;;;0.40;;
9270;SDS011;4673;53.458;9.940;2024-02-23T02:55:03;0.33;;;0.33;;
9270;SDS011;4673;53.458;9.940;2024-02-23T02:57:28;0.40;;;0.40;;
9270;SDS011;4673;53.458;9.940;2024-02-23T02:59:55;0.50;;;0.50;;
9270;SDS011;4673;53.458;9.940;2024-02-23T03:02:20;0.50;;;0.50;;
9270;SDS011;4673;53.458;9.940;2024-02-23T03:04:47;0.60;;;0.60;;
9270;SDS011;4673;53.458;9.940;2024-02-23T03:07:13;0.70;;;0.70;;
9270;SDS011;4673;53.458;9.940;2024-02-23T03:09:39;0.60;;;0.60;;
9270;SDS011;4673;53.458;9.940;2024-02-23T03:12:04;0.60;;;0.60;;
9270;SDS011;4673;53.458;9.940;2024-02-23T03:14:30;0.50;;;0.50;;
9270;SDS011;4673;53.458;9.940;2024-02-23T03:16:56;0.83;;;0.83;;
9270;SDS011;4673;53.458;9.940;2024-02-23T03:19:21;0.80;;;0.80;;
9270;SDS011;4673;53.458;9.940;2024-02-23T03:21:48;0.80;;;0.80;;
9270;SDS011;4673;53.458;9.940;2024-02-23T03:24:14;0.77;;;0.77;;
9270;SDS011;4673;53.458;9.940;2024-02-23T03:26:40;0.50;;;0.50;;
9270;SDS011;4673;53.458;9.940;2024-02-23T03:29:05;0.77;;;0.77;;
9270;SDS011;4673;53.458;9.940;2024-02-23T03:31:31;0.60;;;0.60;;
9270;SDS011;4673;53.458;9.940;2024-02-23T03:33:57;0.70;;;0.70;;
9270;SDS011;4673;53.458;9.940;2024-02-23T03:36:22;0.60;;;0.60;;
9270;SDS011;4673;53.458;9.940;2024-02-23T03:38:48;0.50;;;0.50;;
9270;SDS011;4673;53.458;9.940;2024-02-23T03:41:14;0.50;;;0.50;;
9270;SDS011;4673;53.458;9.940;2024-02-23T03:43:39;0.40;;;0.40;;
9270;SDS011;4673;53.458;9.940;2024-02-23T03:46:05;0.60;;;0.60;;
9270;SDS011;4673;53.458;9.940;2024-02-23T03:48:31;0.40;;;0.40;;
9270;SDS011;4673;53.458;9.940;2024-02-23T03:50:57;1.00;;;1.00;;
9270;SDS011;4673;53.458;9.940;2024-02-23T03:53:23;0.70;;;0.70;;
9270;SDS011;4673;53.458;9.940;2024-02-23T03:55:48;0.73;;;0.73;;
9270;SDS011;4673;53.458;9.940;2024-02-23T03:58:14;0.50;;;0.50;;
9270;SDS011;4673;53.458;9.940;2024-02-23T04:00:40;0.60;;;0.60;;
9270;SDS011;4673;53.458;9.940;2024-02-23T04:03:05;0.80;;;0.80;;
9270;SDS011;4673;53.458;9.940;2024-02-23T04:05:31;0.70;;;0.70;;
9270;SDS011;4673;53.458;9.940;2024-02-23T04:07:57;0.80;;;0.80;;
9270;SDS011;4673;53.458;9.940;2024-02-23T04:10:22;0.70;;;0.70;;
9270;SDS011;4673;53.458;9.940;2024-02-23T04:12:48;0.87;;;0.87;;
9270;SDS011;4673;53.458;9.940;2024-02-23T04:15:14;0.57;;;0.57;;
9270;SDS011;4673;53.458;9.940;2024-02-23T04:17:39;0.90;;;0.90;;
9270;SDS011;4673;53.458;9.940;2024-02-23T04:20:06;0.63;;;0.63;;
9270;SDS011;4673;53.458;9.940;2024-02-23T04:22:32;0.80;;;0.80;;
9270;SDS011;4673;53.458;9.940;2024-02-23T04:24:58;0.80;;;0.80;;
9270;SDS011;4673;53.458;9.940;2024-02-23T04:27:24;0.80;;;0.80;;
9270;SDS011;4673;53.458;9.940;2024-02-23T04:29:49;1.00;;;1.00;;
9270;SDS011;4673;53.458;9.940;2024-02-23T04:32:15;0.90;;;0.90;;
9270;SDS011;4673;53.458;9.940;2024-02-23T04:34:40;0.73;;;0.73;;
9270;SDS011;4673;53.458;9.940;2024-02-23T04:37:06;0.97;;;0.97;;
9270;SDS011;4673;53.458;9.940;2024-02-23T04:39:32;1.17;;;1.17;;
9270;SDS011;4673;53.458;9.940;2024-02-23T04:41:58;1.27;;;1.27;;
9270;SDS011;4673;53.458;9.940;2024-02-23T04:44:23;0.97;;;0.97;;
9270;SDS011;4673;53.458;9.940;2024-02-23T04:46:49;1.10;;;1.10;;
9270;SDS011;4673;53.458;9.940;2024-02-23T04:49:15;1.27;;;1.27;;
9270;SDS011;4673;53.458;9.940;2024-02-23T04:51:40;1.10;;;1.10;;
9270;SDS011;4673;53.458;9.940;2024-02-23T04:54:06;1.57;;;1.57;;
9270;SDS011;4673;53.458;9.940;2024-02-23T04:56:32;1.20;;;1.20;;
9270;SDS011;4673;53.458;9.940;2024-02-23T04:59:01;1.60;;;1.60;;
9270;SDS011;4673;53.458;9.940;2024-02-23T05:01:27;1.50;;;1.50;;
9270;SDS011;4673;53.458;9.940;2024-02-23T05:03:53;1.70;;;1.70;;
9270;SDS011;4673;53.458;9.940;2024-02-23T05:06:18;1.83;;;1.83;;
9270;SDS011;4673;53.458;9.940;2024-02-23T05:08:44;1.30;;;1.30;;
9270;SDS011;4673;53.458;9.940;2024-02-23T05:11:09;1.50;;;1.50;;
9270;SDS011;4673;53.458;9.940;2024-02-23T05:13:35;1.53;;;1.53;;
9270;SDS011;4673;53.458;9.940;2024-02-23T05:16:02;1.70;;;1.70;;
9270;SDS011;4673;53.458;9.940;2024-02-23T05:18:28;1.40;;;1.40;;
9270;SDS011;4673;53.458;9.940;2024-02-23T05:20:54;1.67;;;1.67;;
9270;SDS011;4673;53.458;9.940;2024-02-23T05:23:19;1.30;;;1.30;;
9270;SDS011;4673;53.458;9.940;2024-02-23T05:25:45;1.80;;;1.80;;
9270;SDS011;4673;53.458;9.940;2024-02-23T05:28:11;1.30;;;1.30;;
9270;SDS011;4673;53.458;9.940;2024-02-23T05:30:36;1.63;;;1.63;;
9270;SDS011;4673;53.458;9.940;2024-02-23T05:33:02;1.70;;;1.70;;
9270;SDS011;4673;53.458;9.940;2024-02-23T05:35:28;1.70;;;1.70;;
9270;SDS011;4673;53.458;9.940;2024-02-23T05:37:54;1.57;;;1.57;;
9270;SDS011;4673;53.458;9.940;2024-02-23T05:40:20;1.33;;;1.33;;
9270;SDS011;4673;53.458;9.940;2024-02-23T05:42:46;1.80;;;1.80;;
9270;SDS011;4673;53.458;9.940;2024-02-23T05:45:12;1.60;;;1.60;;
9270;SDS011;4673;53.458;9.940;2024-02-23T05:47:38;1.40;;;1.40;;
9270;SDS011;4673;53.458;9.940;2024-02-23T05:50:04;1.13;;;1.13;;
9270;SDS011;4673;53.458;9.940;2024-02-23T05:52:33;1.20;;;1.20;;
9270;SDS011;4673;53.458;9.940;2024-02-23T05:54:59;1.30;;;1.30;;
9270;SDS011;4673;53.458;9.940;2024-02-23T05:57:28;1.57;;;1.57;;
9270;SDS011;4673;53.458;9.940;2024-02-23T05:59:54;1.37;;;1.37;;
9270;SDS011;4673;53.458;9.940;2024-02-23T06:02:22;1.07;;;1.07;;
9270;SDS011;4673;53.458;9.940;2024-02-23T06:04:49;1.00;;;1.00;;
9270;SDS011;4673;53.458;9.940;2024-02-23T06:07:14;1.23;;;1.23;;
9270;SDS011;4673;53.458;9.940;2024-02-23T06:09:44;1.20;;;1.20;;
9270;SDS011;4673;53.458;9.940;2024-02-23T06:12:09;1.20;;;1.20;;
9270;SDS011;4673;53.458;9.940;2024-02-23T06:14:35;1.17;;;1.17;;
9270;SDS011;4673;53.458;9.940;2024-02-23T06:17:01;1.10;;;1.10;;
9270;SDS011;4673;53.458;9.940;2024-02-23T06:19:27;1.23;;;1.23;;
9270;SDS011;4673;53.458;9.940;2024-02-23T06:21:53;1.10;;;1.10;;
9270;SDS011;4673;53.458;9.940;2024-02-23T06:24:19;1.00;;;1.00;;
9270;SDS011;4673;53.458;9.940;2024-02-23T06:26:45;1.20;;;1.20;;
9270;SDS011;4673;53.458;9.940;2024-02-23T06:29:11;1.20;;;1.20;;
9270;SDS011;4673;53.458;9.940;2024-02-23T06:31:39;1.20;;;1.20;;
9270;SDS011;4673;53.458;9.940;2024-02-23T06:34:05;1.40;;;1.40;;
9270;SDS011;4673;53.458;9.940;2024-02-23T06:36:30;1.27;;;1.27;;
9270;SDS011;4673;53.458;9.940;2024-02-23T06:38:56;1.50;;;1.50;;
9270;SDS011;4673;53.458;9.940;2024-02-23T06:41:22;1.47;;;1.47;;
9270;SDS011;4673;53.458;9.940;2024-02-23T06:43:48;1.57;;;1.57;;
9270;SDS011;4673;53.458;9.940;2024-02-23T06:46:13;1.77;;;1.77;;
9270;SDS011;4673;53.458;9.940;2024-02-23T06:48:39;1.47;;;1.47;;
9270;SDS011;4673;53.458;9.940;2024-02-23T06:51:05;1.67;;;1.67;;
9270;SDS011;4673;53.458;9.940;2024-02-23T06:53:34;2.03;;;2.03;;
9270;SDS011;4673;53.458;9.940;2024-02-23T06:56:00;1.40;;;1.40;;
9270;SDS011;4673;53.458;9.940;2024-02-23T06:58:26;1.93;;;1.93;;
9270;SDS011;4673;53.458;9.940;2024-02-23T07:00:52;2.43;;;2.43;;
9270;SDS011;4673;53.458;9.940;2024-02-23T07:03:17;2.03;;;2.03;;
9270;SDS011;4673;53.458;9.940;2024-02-23T07:05:43;2.20;;;2.20;;
9270;SDS011;4673;53.458;9.940;2024-02-23T07:08:10;2.20;;;2.20;;
9270;SDS011;4673;53.458;9.940;2024-02-23T07:10:36;1.87;;;1.87;;
9270;SDS011;4673;53.458;9.940;2024-02-23T07:13:01;1.90;;;1.90;;
9270;SDS011;4673;53.458;9.940;2024-02-23T07:15:27;1.90;;;1.90;;
9270;SDS011;4673;53.458;9.940;2024-02-23T07:17:53;1.80;;;1.80;;
9270;SDS011;4673;53.458;9.940;2024-02-23T07:20:18;1.93;;;1.93;;
9270;SDS011;4673;53.458;9.940;2024-02-23T07:22:45;1.70;;;1.70;;
9270;SDS011;4673;53.458;9.940;2024-02-23T07:25:11;1.80;;;1.80;;
9270;SDS011;4673;53.458;9.940;2024-02-23T07:27:37;1.90;;;1.90;;
9270;SDS011;4673;53.458;9.940;2024-02-23T07:30:03;1.80;;;1.80;;
9270;SDS011;4673;53.458;9.940;2024-02-23T07:32:29;1.73;;;1.73;;
9270;SDS011;4673;53.458;9.940;2024-02-23T07:34:55;2.33;;;2.33;;
9270;SDS011;4673;53.458;9.940;2024-02-23T07:37:21;1.80;;;1.80;;
9270;SDS011;4673;53.458;9.940;2024-02-23T07:39:46;2.23;;;2.23;;
9270;SDS011;4673;53.458;9.940;2024-02-23T07:42:12;1.50;;;1.50;;
9270;SDS011;4673;53.458;9.940;2024-02-23T07:44:39;1.77;;;1.77;;
9270;SDS011;4673;53.458;9.940;2024-02-23T07:47:05;1.90;;;1.90;;
9270;SDS011;4673;53.458;9.940;2024-02-23T07:49:31;1.40;;;1.40;;
9270;SDS011;4673;53.458;9.940;2024-02-23T07:51:57;1.63;;;1.63;;
9270;SDS011;4673;53.458;9.940;2024-02-23T07:54:22;2.00;;;2.00;;
9270;SDS011;4673;53.458;9.940;2024-02-23T07:56:48;1.50;;;1.50;;
9270;SDS011;4673;53.458;9.940;2024-02-23T07:59:14;1.40;;;1.40;;
9270;SDS011;4673;53.458;9.940;2024-02-23T08:01:39;1.80;;;1.80;;
9270;SDS011;4673;53.458;9.940;2024-02-23T08:04:05;1.43;;;1.43;;
9270;SDS011;4673;53.458;9.940;2024-02-23T08:06:31;1.50;;;1.50;;
9270;SDS011;4673;53.458;9.940;2024-02-23T08:08:57;1.37;;;1.37;;
9270;SDS011;4673;53.458;9.940;2024-02-23T08:11:22;1.53;;;1.53;;
9270;SDS011;4673;53.458;9.940;2024-02-23T08:13:48;1.60;;;1.60;;
9270;SDS011;4673;53.458;9.940;2024-02-23T08:16:15;1.47;;;1.47;;
9270;SDS011;4673;53.458;9.940;2024-02-23T08:18:42;1.50;;;1.50;;
9270;SDS011;4673;53.458;9.940;2024-02-23T08:21:07;1.20;;;1.20;;
9270;SDS011;4673;53.458;9.940;2024-02-23T08:23:35;1.80;;;1.80;;
9270;SDS011;4673;53.458;9.940;2024-02-23T08:26:01;1.77;;;1.77;;
9270;SDS011;4673;53.458;9.940;2024-02-23T08:28:27;1.40;;;1.40;;
9270;SDS011;4673;53.458;9.940;2024-02-23T08:30:52;1.50;;;1.50;;
9270;SDS011;4673;53.458;9.940;2024-02-23T08:33:18;2.17;;;2.17;;
9270;SDS011;4673;53.458;9.940;2024-02-23T08:35:45;1.80;;;1.80;;
9270;SDS011;4673;53.458;9.940;2024-02-23T08:38:11;1.70;;;1.70;;
9270;SDS011;4673;53.458;9.940;2024-02-23T08:40:36;1.63;;;1.63;;
9270;SDS011;4673;53.458;9.940;2024-02-23T08:43:02;1.23;;;1.23;;
9270;SDS011;4673;53.458;9.940;2024-02-23T08:45:28;1.53;;;1.53;;
9270;SDS011;4673;53.458;9.940;2024-02-23T08:47:53;2.20;;;2.20;;
9270;SDS011;4673;53.458;9.940;2024-02-23T08:50:19;1.43;;;1.43;;
9270;SDS011;4673;53.458;9.940;2024-02-23T08:52:44;1.77;;;1.77;;
9270;SDS011;4673;53.458;9.940;2024-02-23T08:55:10;1.83;;;1.83;;
9270;SDS011;4673;53.458;9.940;2024-02-23T08:57:36;1.67;;;1.67;;
9270;SDS011;4673;53.458;9.940;2024-02-23T09:00:03;2.10;;;2.10;;
9270;SDS011;4673;53.458;9.940;2024-02-23T09:02:32;1.67;;;1.67;;
9270;SDS011;4673;53.458;9.940;2024-02-23T09:05:00;1.57;;;1.57;;
9270;SDS011;4673;53.458;9.940;2024-02-23T09:07:26;1.40;;;1.40;;
9270;SDS011;4673;53.458;9.940;2024-02-23T09:09:52;1.47;;;1.47;;
9270;SDS011;4673;53.458;9.940;2024-02-23T09:12:18;1.53;;;1.53;;
9270;SDS011;4673;53.458;9.940;2024-02-23T09:14:44;1.50;;;1.50;;
9270;SDS011;4673;53.458;9.940;2024-02-23T09:17:10;1.90;;;1.90;;
9270;SDS011;4673;53.458;9.940;2024-02-23T09:19:37;1.77;;;1.77;;
9270;SDS011;4673;53.458;9.940;2024-02-23T09:22:03;1.77;;;1.77;;
9270;SDS011;4673;53.458;9.940;2024-02-23T09:24:29;1.50;;;1.50;;
9270;SDS011;4673;53.458;9.940;2024-02-23T09:26:54;1.60;;;1.60;;
9270;SDS011;4673;53.458;9.940;2024-02-23T09:29:20;1.43;;;1.43;;
9270;SDS011;4673;53.458;9.940;2024-02-23T09:31:46;1.60;;;1.60;;
9270;SDS011;4673;53.458;9.940;2024-02-23T09:34:12;1.73;;;1.73;;
9270;SDS011;4673;53.458;9.940;2024-02-23T09:36:38;1.40;;;1.40;;
9270;SDS011;4673;53.458;9.940;2024-02-23T09:39:03;1.40;;;1.40;;
9270;SDS011;4673;53.458;9.940;2024-02-23T09:41:32;1.23;;;1.23;;
9270;SDS011;4673;53.458;9.940;2024-02-23T09:44:00;1.33;;;1.33;;
9270;SDS011;4673;53.458;9.940;2024-02-23T09:46:26;1.90;;;1.90;;
9270;SDS011;4673;53.458;9.940;2024-02-23T09:48:52;1.60;;;1.60;;
9270;SDS011;4673;53.458;9.940;2024-02-23T09:51:19;1.77;;;1.77;;
9270;SDS011;4673;53.458;9.940;2024-02-23T09:53:48;1.30;;;1.30;;
9270;SDS011;4673;53.458;9.940;2024-02-23T09:56:16;1.10;;;1.10;;
9270;SDS011;4673;53.458;9.940;2024-02-23T09:58:43;1.83;;;1.83;;
9270;SDS011;4673;53.458;9.940;2024-02-23T10:01:12;1.63;;;1.63;;
9270;SDS011;4673;53.458;9.940;2024-02-23T10:03:40;2.27;;;2.27;;
9270;SDS011;4673;53.458;9.940;2024-02-23T10:06:07;1.47;;;1.47;;
9270;SDS011;4673;53.458;9.940;2024-02-23T10:08:33;1.20;;;1.20;;
9270;SDS011;4673;53.458;9.940;2024-02-23T10:11:00;2.27;;;2.27;;
9270;SDS011;4673;53.458;9.940;2024-02-23T10:13:26;1.50;;;1.50;;
9270;SDS011;4673;53.458;9.940;2024-02-23T10:15:52;1.70;;;1.70;;
9270;SDS011;4673;53.458;9.940;2024-02-23T10:18:18;1.53;;;1.53;;
9270;SDS011;4673;53.458;9.940;2024-02-23T10:20:44;1.40;;;1.40;;
9270;SDS011;4673;53.458;9.940;2024-02-23T10:23:11;1.37;;;1.37;;
9270;SDS011;4673;53.458;9.940;2024-02-23T10:25:37;1.37;;;1.37;;
9270;SDS011;4673;53.458;9.940;2024-02-23T10:28:03;1.30;;;1.30;;
9270;SDS011;4673;53.458;9.940;2024-02-23T10:30:32;2.00;;;2.00;;
9270;SDS011;4673;53.458;9.940;2024-02-23T10:32:58;1.13;;;1.13;;
9270;SDS011;4673;53.458;9.940;2024-02-23T10:35:24;1.37;;;1.37;;
9270;SDS011;4673;53.458;9.940;2024-02-23T10:37:52;1.40;;;1.40;;
9270;SDS011;4673;53.458;9.940;2024-02-23T10:40:19;1.30;;;1.30;;
9270;SDS011;4673;53.458;9.940;2024-02-23T10:42:47;1.30;;;1.30;;
9270;SDS011;4673;53.458;9.940;2024-02-23T10:45:16;1.67;;;1.67;;
9270;SDS011;4673;53.458;9.940;2024-02-23T10:47:43;1.43;;;1.43;;
9270;SDS011;4673;53.458;9.940;2024-02-23T10:50:10;1.57;;;1.57;;
9270;SDS011;4673;53.458;9.940;2024-02-23T10:52:40;1.13;;;1.13;;
9270;SDS011;4673;53.458;9.940;2024-02-23T10:55:08;1.27;;;1.27;;
9270;SDS011;4673;53.458;9.940;2024-02-23T10:57:34;1.20;;;1.20;;
9270;SDS011;4673;53.458;9.940;2024-02-23T11:00:01;1.33;;;1.33;;
9270;SDS011;4673;53.458;9.940;2024-02-23T11:02:31;1.13;;;1.13;;
9270;SDS011;4673;53.458;9.940;2024-02-23T11:04:59;1.63;;;1.63;;
9270;SDS011;4673;53.458;9.940;2024-02-23T11:07:25;1.00;;;1.00;;
9270;SDS011;4673;53.458;9.940;2024-02-23T11:09:53;1.07;;;1.07;;
9270;SDS011;4673;53.458;9.940;2024-02-23T11:12:22;1.40;;;1.40;;
9270;SDS011;4673;53.458;9.940;2024-02-23T11:14:51;1.67;;;1.67;;
9270;SDS011;4673;53.458;9.940;2024-02-23T11:17:22;1.40;;;1.40;;
9270;SDS011;4673;53.458;9.940;2024-02-23T11:19:51;1.47;;;1.47;;
9270;SDS011;4673;53.458;9.940;2024-02-23T11:22:25;1.20;;;1.20;;
9270;SDS011;4673;53.458;9.940;2024-02-23T11:25:05;1.27;;;1.27;;
9270;SDS011;4673;53.458;9.940;2024-02-23T11:27:35;0.90;;;0.90;;
9270;SDS011;4673;53.458;9.940;2024-02-23T11:30:03;1.00;;;1.00;;
9270;SDS011;4673;53.458;9.940;2024-02-23T11:32:40;1.17;;;1.17;;
9270;SDS011;4673;53.458;9.940;2024-02-23T11:35:08;1.27;;;1.27;;
9270;SDS011;4673;53.458;9.940;2024-02-23T11:37:49;1.60;;;1.60;;
9270;SDS011;4673;53.458;9.940;2024-02-23T11:40:24;1.00;;;1.00;;
9270;SDS011;4673;53.458;9.940;2024-02-23T11:42:55;1.03;;;1.03;;
9270;SDS011;4673;53.458;9.940;2024-02-23T11:45:21;1.30;;;1.30;;
9270;SDS011;4673;53.458;9.940;2024-02-23T11:47:47;1.30;;;1.30;;
9270;SDS011;4673;53.458;9.940;2024-02-23T11:50:13;0.80;;;0.80;;
9270;SDS011;4673;53.458;9.940;2024-02-23T11:52:40;1.00;;;1.00;;
9270;SDS011;4673;53.458;9.940;2024-02-23T11:55:06;0.93;;;0.93;;
9270;SDS011;4673;53.458;9.940;2024-02-23T11:57:36;0.93;;;0.93;;
9270;SDS011;4673;53.458;9.940;2024-02-23T12:00:03;1.30;;;1.30;;
9270;SDS011;4673;53.458;9.940;2024-02-23T12:02:32;0.80;;;0.80;;
9270;SDS011;4673;53.458;9.940;2024-02-23T12:04:59;1.00;;;1.00;;
9270;SDS011;4673;53.458;9.940;2024-02-23T12:07:25;1.00;;;1.00;;
9270;SDS011;4673;53.458;9.940;2024-02-23T12:09:54;1.30;;;1.30;;
9270;SDS011;4673;53.458;9.940;2024-02-23T12:12:20;1.80;;;1.80;;
9270;SDS011;4673;53.458;9.940;2024-02-23T12:14:45;1.00;;;1.00;;
9270;SDS011;4673;53.458;9.940;2024-02-23T12:17:13;1.47;;;1.47;;
9270;SDS011;4673;53.458;9.940;2024-02-23T12:19:39;1.20;;;1.20;;
9270;SDS011;4673;53.458;9.940;2024-02-23T12:22:05;0.90;;;0.90;;
9270;SDS011;4673;53.458;9.940;2024-02-23T12:24:31;1.07;;;1.07;;
9270;SDS011;4673;53.458;9.940;2024-02-23T12:26:57;1.10;;;1.10;;
9270;SDS011;4673;53.458;9.940;2024-02-23T12:29:23;1.70;;;1.70;;
9270;SDS011;4673;53.458;9.940;2024-02-23T12:31:49;1.37;;;1.37;;
9270;SDS011;4673;53.458;9.940;2024-02-23T12:34:14;1.40;;;1.40;;
9270;SDS011;4673;53.458;9.940;2024-02-23T12:36:41;0.80;;;0.80;;
9270;SDS011;4673;53.458;9.940;2024-02-23T12:39:06;0.80;;;0.80;;
9270;SDS011;4673;53.458;9.940;2024-02-23T12:41:32;1.03;;;1.03;;
9270;SDS011;4673;53.458;9.940;2024-02-23T12:43:59;1.00;;;1.00;;
9270;SDS011;4673;53.458;9.940;2024-02-23T12:46:24;1.03;;;1.03;;
9270;SDS011;4673;53.458;9.940;2024-02-23T12:48:50;0.93;;;0.93;;
9270;SDS011;4673;53.458;9.940;2024-02-23T12:51:16;0.70;;;0.70;;
9270;SDS011;4673;53.458;9.940;2024-02-23T12:53:43;0.80;;;0.80;;
9270;SDS011;4673;53.458;9.940;2024-02-23T12:56:12;1.07;;;1.07;;
9270;SDS011;4673;53.458;9.940;2024-02-23T12:58:41;1.00;;;1.00;;
9270;SDS011;4673;53.458;9.940;2024-02-23T13:01:07;1.20;;;1.20;;
9270;SDS011;4673;53.458;9.940;2024-02-23T13:03:34;1.10;;;1.10;;
9270;SDS011;4673;53.458;9.940;2024-02-23T13:06:01;0.87;;;0.87;;
9270;SDS011;4673;53.458;9.940;2024-02-23T13:08:27;0.80;;;0.80;;
9270;SDS011;4673;53.458;9.940;2024-02-23T13:10:53;0.70;;;0.70;;
9270;SDS011;4673;53.458;9.940;2024-02-23T13:13:20;0.73;;;0.73;;
9270;SDS011;4673;53.458;9.940;2024-02-23T13:15:47;0.83;;;0.83;;
9270;SDS011;4673;53.458;9.940;2024-02-23T13:18:13;1.07;;;1.07;;
9270;SDS011;4673;53.458;9.940;2024-02-23T13:20:39;1.10;;;1.10;;
9270;SDS011;4673;53.458;9.940;2024-02-23T13:23:08;0.80;;;0.80;;
9270;SDS011;4673;53.458;9.940;2024-02-23T13:25:35;0.70;;;0.70;;
9270;SDS011;4673;53.458;9.940;2024-02-23T13:28:01;0.90;;;0.90;;
9270;SDS011;4673;53.458;9.940;2024-02-23T13:30:27;0.80;;;0.80;;
9270;SDS011;4673;53.458;9.940;2024-02-23T13:32:53;1.20;;;1.20;;
9270;SDS011;4673;53.458;9.940;2024-02-23T13:35:18;0.80;;;0.80;;
9270;SDS011;4673;53.458;9.940;2024-02-23T13:37:44;0.50;;;0.50;;
9270;SDS011;4673;53.458;9.940;2024-02-23T13:40:10;0.80;;;0.80;;
9270;SDS011;4673;53.458;9.940;2024-02-23T13:42:36;0.90;;;0.90;;
9270;SDS011;4673;53.458;9.940;2024-02-23T13:45:13;0.77;;;0.77;;
9270;SDS011;4673;53.458;9.940;2024-02-23T13:47:39;1.00;;;1.00;;
9270;SDS011;4673;53.458;9.940;2024-02-23T13:50:05;0.80;;;0.80;;
9270;SDS011;4673;53.458;9.940;2024-02-23T13:52:31;1.10;;;1.10;;
9270;SDS011;4673;53.458;9.940;2024-02-23T13:54:57;0.73;;;0.73;;
9270;SDS011;4673;53.458;9.940;2024-02-23T13:57:22;0.87;;;0.87;;
9270;SDS011;4673;53.458;9.940;2024-02-23T13:59:48;0.70;;;0.70;;
9270;SDS011;4673;53.458;9.940;2024-02-23T14:02:14;1.10;;;1.10;;
9270;SDS011;4673;53.458;9.940;2024-02-23T14:04:40;0.90;;;0.90;;
9270;SDS011;4673;53.458;9.940;2024-02-23T14:07:06;0.73;;;0.73;;
9270;SDS011;4673;53.458;9.940;2024-02-23T14:09:32;0.90;;;0.90;;
9270;SDS011;4673;53.458;9.940;2024-02-23T14:11:58;0.90;;;0.90;;
9270;SDS011;4673;53.458;9.940;2024-02-23T14:14:24;1.07;;;1.07;;
9270;SDS011;4673;53.458;9.940;2024-02-23T14:16:50;1.13;;;1.13;;
9270;SDS011;4673;53.458;9.940;2024-02-23T14:19:16;0.77;;;0.77;;
9270;SDS011;4673;53.458;9.940;2024-02-23T14:21:41;0.73;;;0.73;;
9270;SDS011;4673;53.458;9.940;2024-02-23T14:24:07;1.00;;;1.00;;
9270;SDS011;4673;53.458;9.940;2024-02-23T14:26:33;1.10;;;1.10;;
9270;SDS011;4673;53.458;9.940;2024-02-23T14:28:59;1.13;;;1.13;;
9270;SDS011;4673;53.458;9.940;2024-02-23T14:31:25;0.70;;;0.70;;
9270;SDS011;4673;53.458;9.940;2024-02-23T14:33:51;0.77;;;0.77;;
9270;SDS011;4673;53.458;9.940;2024-02-23T14:36:17;0.90;;;0.90;;
9270;SDS011;4673;53.458;9.940;2024-02-23T14:38:43;0.67;;;0.67;;
9270;SDS011;4673;53.458;9.940;2024-02-23T14:41:09;0.87;;;0.87;;
9270;SDS011;4673;53.458;9.940;2024-02-23T14:43:35;1.00;;;1.00;;
9270;SDS011;4673;53.458;9.940;2024-02-23T14:46:01;1.00;;;1.00;;
9270;SDS011;4673;53.458;9.940;2024-02-23T14:48:27;1.13;;;1.13;;
9270;SDS011;4673;53.458;9.940;2024-02-23T14:50:53;0.87;;;0.87;;
9270;SDS011;4673;53.458;9.940;2024-02-23T14:53:19;1.10;;;1.10;;
9270;SDS011;4673;53.458;9.940;2024-02-23T14:55:44;1.00;;;1.00;;
9270;SDS011;4673;53.458;9.940;2024-02-23T14:58:11;1.00;;;1.00;;
9270;SDS011;4673;53.458;9.940;2024-02-23T15:00:37;1.10;;;1.10;;
9270;SDS011;4673;53.458;9.940;2024-02-23T15:03:03;1.00;;;1.00;;
9270;SDS011;4673;53.458;9.940;2024-02-23T15:05:30;0.90;;;0.90;;
9270;SDS011;4673;53.458;9.940;2024-02-23T15:07:55;1.10;;;1.10;;
9270;SDS011;4673;53.458;9.940;2024-02-23T15:10:21;0.77;;;0.77;;
9270;SDS011;4673;53.458;9.940;2024-02-23T15:12:47;1.10;;;1.10;;